sensor_id;sensor_type;location;lat;lon;timestamp;pressure;altitude;pressure_sealevel;temperature;humidity
72685;BME280;61365;52.162;4.500;2023-01-15T00:01:31;99706.53;;;8.19;71.53
72685;BME280;61365;52.162;4.500;2023-01-15T00:04:00;99718.06;;;7.96;71.67
72685;BME280;61365;52.162;4.500;2023-01-15T00:06:36;99715.25;;;8.18;75.36
72685;BME280;61365;52.162;4.500;2023-01-15T00:09:06;99708.28;;;8.17;71.85
72685;BME280;61365;52.162;4.500;2023-01-15T00:11:33;99714.31;;;8.25;74.36
72685;BME280;61365;52.162;4.500;2023-01-15T00:14:00;99716.13;;;8.19;73.38
72685;BME280;61365;52.162;4.500;2023-01-15T00:16:31;99709.16;;;8.19;73.73
72685;BME280;61365;52.162;4.500;2023-01-15T00:18:59;99709.13;;;8.21;74.26
72685;BME280;61365;52.162;4.500;2023-01-15T00:21:27;99716.06;;;8.26;75.29
72685;BME280;61365;52.162;4.500;2023-01-15T00:23:54;99707.66;;;7.90;70.23
72685;BME280;61365;52.162;4.500;2023-01-15T00:26:40;99709.41;;;7.88;70.02
72685;BME280;61365;52.162;4.500;2023-01-15T00:29:25;99702.38;;;7.96;71.77
72685;BME280;61365;52.162;4.500;2023-01-15T00:32:03;99706.69;;;8.02;71.94
72685;BME280;61365;52.162;4.500;2023-01-15T00:34:32;99702.25;;;8.14;73.36
72685;BME280;61365;52.162;4.500;2023-01-15T00:36:59;99688.25;;;8.16;72.33
72685;BME280;61365;52.162;4.500;2023-01-15T00:39:26;99705.81;;;8.05;73.29
72685;BME280;61365;52.162;4.500;2023-01-15T00:41:54;99697.09;;;8.04;69.12
72685;BME280;61365;52.162;4.500;2023-01-15T00:44:21;99705.72;;;8.11;73.59
72685;BME280;61365;52.162;4.500;2023-01-15T00:46:47;99710.09;;;8.09;74.93
72685;BME280;61365;52.162;4.500;2023-01-15T00:49:14;99697.25;;;7.86;69.63
72685;BME280;61365;52.162;4.500;2023-01-15T00:51:40;99689.38;;;7.90;71.25
72685;BME280;61365;52.162;4.500;2023-01-15T00:54:07;99694.53;;;7.96;70.71
72685;BME280;61365;52.162;4.500;2023-01-15T00:56:33;99688.38;;;8.07;71.36
72685;BME280;61365;52.162;4.500;2023-01-15T00:59:01;99691.97;;;7.92;71.88
72685;BME280;61365;52.162;4.500;2023-01-15T01:01:31;99695.50;;;7.85;71.31
72685;BME280;61365;52.162;4.500;2023-01-15T01:03:58;99696.28;;;7.96;69.30
72685;BME280;61365;52.162;4.500;2023-01-15T01:06:25;99691.94;;;7.95;69.71
72685;BME280;61365;52.162;4.500;2023-01-15T01:08:52;99698.16;;;7.78;70.78
72685;BME280;61365;52.162;4.500;2023-01-15T01:11:23;99695.41;;;7.99;72.35
72685;BME280;61365;52.162;4.500;2023-01-15T01:13:53;99688.41;;;7.99;75.00
72685;BME280;61365;52.162;4.500;2023-01-15T01:18:50;99705.00;;;7.96;74.35
72685;BME280;61365;52.162;4.500;2023-01-15T01:21:17;99697.97;;;8.05;72.15
72685;BME280;61365;52.162;4.500;2023-01-15T01:23:44;99711.13;;;7.89;70.75
72685;BME280;61365;52.162;4.500;2023-01-15T01:26:10;99698.94;;;7.93;70.95
72685;BME280;61365;52.162;4.500;2023-01-15T01:28:39;99696.25;;;8.01;71.81
72685;BME280;61365;52.162;4.500;2023-01-15T01:31:07;99707.66;;;7.92;71.33
72685;BME280;61365;52.162;4.500;2023-01-15T01:33:34;99697.13;;;8.00;71.23
72685;BME280;61365;52.162;4.500;2023-01-15T01:36:01;99708.31;;;8.16;72.60
72685;BME280;61365;52.162;4.500;2023-01-15T01:38:28;99704.03;;;8.08;70.53
72685;BME280;61365;52.162;4.500;2023-01-15T01:40:54;99709.38;;;7.94;69.42
72685;BME280;61365;52.162;4.500;2023-01-15T01:43:26;99719.84;;;7.88;69.01
72685;BME280;61365;52.162;4.500;2023-01-15T01:45:54;99726.84;;;7.86;69.74
72685;BME280;61365;52.162;4.500;2023-01-15T01:48:28;99719.94;;;7.79;70.37
72685;BME280;61365;52.162;4.500;2023-01-15T01:51:00;99723.44;;;7.76;69.17
72685;BME280;61365;52.162;4.500;2023-01-15T01:53:29;99713.88;;;7.77;73.03
72685;BME280;61365;52.162;4.500;2023-01-15T01:55:58;99717.28;;;7.84;71.57
72685;BME280;61365;52.162;4.500;2023-01-15T01:58:28;99718.22;;;7.76;68.16
72685;BME280;61365;52.162;4.500;2023-01-15T02:00:58;99719.16;;;7.68;70.09
72685;BME280;61365;52.162;4.500;2023-01-15T02:03:30;99707.75;;;7.79;70.78
72685;BME280;61365;52.162;4.500;2023-01-15T02:06:02;99719.09;;;7.77;69.35
72685;BME280;61365;52.162;4.500;2023-01-15T02:08:31;99707.59;;;7.96;72.98
72685;BME280;61365;52.162;4.500;2023-01-15T02:11:00;99707.78;;;7.75;69.14
72685;BME280;61365;52.162;4.500;2023-01-15T02:13:38;99708.47;;;7.95;71.89
72685;BME280;61365;52.162;4.500;2023-01-15T02:16:22;99711.06;;;7.97;69.15
72685;BME280;61365;52.162;4.500;2023-01-15T02:24:58;99677.44;;;7.57;72.66
72685;BME280;61365;52.162;4.500;2023-01-15T02:27:29;99685.13;;;7.75;75.07
72685;BME280;61365;52.162;4.500;2023-01-15T02:30:10;99697.59;;;7.39;69.66
72685;BME280;61365;52.162;4.500;2023-01-15T02:32:54;99701.91;;;7.43;71.25
72685;BME280;61365;52.162;4.500;2023-01-15T02:38:12;99707.81;;;7.72;73.40
72685;BME280;61365;52.162;4.500;2023-01-15T02:40:42;99709.56;;;7.70;70.92
72685;BME280;61365;52.162;4.500;2023-01-15T02:43:12;99718.38;;;7.55;71.15
72685;BME280;61365;52.162;4.500;2023-01-15T02:45:42;99706.00;;;7.80;75.23
72685;BME280;61365;52.162;4.500;2023-01-15T02:48:15;99700.13;;;7.53;70.55
72685;BME280;61365;52.162;4.500;2023-01-15T02:50:52;99701.81;;;7.59;70.59
72685;BME280;61365;52.162;4.500;2023-01-15T02:53:26;99697.53;;;7.45;69.76
72685;BME280;61365;52.162;4.500;2023-01-15T02:55:58;99691.47;;;7.42;71.59
72685;BME280;61365;52.162;4.500;2023-01-15T02:58:31;99690.63;;;7.36;71.59
72685;BME280;61365;52.162;4.500;2023-01-15T03:01:05;99688.00;;;7.41;70.34
72685;BME280;61365;52.162;4.500;2023-01-15T03:03:57;99683.59;;;7.46;71.19
72685;BME280;61365;52.162;4.500;2023-01-15T03:06:48;99678.44;;;7.43;66.82
72685;BME280;61365;52.162;4.500;2023-01-15T03:09:33;99674.00;;;7.48;72.44
72685;BME280;61365;52.162;4.500;2023-01-15T03:12:24;99672.97;;;7.73;68.66
72685;BME280;61365;52.162;4.500;2023-01-15T03:15:06;99683.59;;;7.49;72.18
72685;BME280;61365;52.162;4.500;2023-01-15T03:17:59;99678.44;;;7.43;70.76
72685;BME280;61365;52.162;4.500;2023-01-15T03:20:28;99680.25;;;7.29;68.64
72685;BME280;61365;52.162;4.500;2023-01-15T03:23:00;99682.88;;;7.30;70.57
72685;BME280;61365;52.162;4.500;2023-01-15T03:25:40;99685.28;;;7.57;70.02
72685;BME280;61365;52.162;4.500;2023-01-15T03:28:11;99676.59;;;7.51;69.72
72685;BME280;61365;52.162;4.500;2023-01-15T03:30:40;99659.97;;;7.63;69.38
72685;BME280;61365;52.162;4.500;2023-01-15T03:33:07;99674.94;;;7.40;68.59
72685;BME280;61365;52.162;4.500;2023-01-15T03:38:27;99678.44;;;7.39;69.93
72685;BME280;61365;52.162;4.500;2023-01-15T03:41:18;99681.00;;;7.46;73.31
72685;BME280;61365;52.162;4.500;2023-01-15T03:44:04;99674.72;;;7.74;74.05
72685;BME280;61365;52.162;4.500;2023-01-15T03:55:19;99668.00;;;7.39;69.38
72685;BME280;61365;52.162;4.500;2023-01-15T03:57:58;99671.53;;;7.31;69.58
72685;BME280;61365;52.162;4.500;2023-01-15T04:00:43;99674.09;;;7.42;70.54
72685;BME280;61365;52.162;4.500;2023-01-15T04:03:21;99664.44;;;7.52;71.06
72685;BME280;61365;52.162;4.500;2023-01-15T04:05:51;99656.38;;;7.78;71.02
72685;BME280;61365;52.162;4.500;2023-01-15T04:08:25;99670.41;;;7.68;68.62
72685;BME280;61365;52.162;4.500;2023-01-15T04:10:56;99668.72;;;7.59;70.50
72685;BME280;61365;52.162;4.500;2023-01-15T04:13:24;99680.03;;;7.60;69.70
72685;BME280;61365;52.162;4.500;2023-01-15T04:15:51;99669.66;;;7.50;68.24
72685;BME280;61365;52.162;4.500;2023-01-15T04:18:19;99686.91;;;7.72;67.93
72685;BME280;61365;52.162;4.500;2023-01-15T04:20:47;99685.31;;;7.52;69.48
72685;BME280;61365;52.162;4.500;2023-01-15T04:23:13;99691.44;;;7.46;70.53
72685;BME280;61365;52.162;4.500;2023-01-15T04:25:41;99691.44;;;7.48;68.49
72685;BME280;61365;52.162;4.500;2023-01-15T04:28:08;99681.81;;;7.56;70.67
72685;BME280;61365;52.162;4.500;2023-01-15T04:30:35;99681.72;;;7.65;69.02
72685;BME280;61365;52.162;4.500;2023-01-15T04:33:02;99683.47;;;7.68;69.93
72685;BME280;61365;52.162;4.500;2023-01-15T04:35:28;99670.38;;;7.71;69.26
72685;BME280;61365;52.162;4.500;2023-01-15T04:37:56;99689.66;;;7.53;67.76
72685;BME280;61365;52.162;4.500;2023-01-15T04:40:23;99677.50;;;7.52;66.63
72685;BME280;61365;52.162;4.500;2023-01-15T04:43:10;99671.50;;;7.34;67.83
72685;BME280;61365;52.162;4.500;2023-01-15T04:45:57;99666.16;;;7.51;67.01
72685;BME280;61365;52.162;4.500;2023-01-15T04:48:24;99673.22;;;7.39;66.35
72685;BME280;61365;52.162;4.500;2023-01-15T04:50:52;99668.88;;;7.34;68.84
72685;BME280;61365;52.162;4.500;2023-01-15T04:53:18;99668.84;;;7.44;66.81
72685;BME280;61365;52.162;4.500;2023-01-15T04:55:44;99668.97;;;7.22;67.46
72685;BME280;61365;52.162;4.500;2023-01-15T04:58:14;99665.34;;;7.48;69.58
72685;BME280;61365;52.162;4.500;2023-01-15T05:00:40;99668.91;;;7.36;66.25
72685;BME280;61365;52.162;4.500;2023-01-15T05:03:07;99671.53;;;7.33;65.39
72685;BME280;61365;52.162;4.500;2023-01-15T05:05:33;99663.56;;;7.48;64.74
72685;BME280;61365;52.162;4.500;2023-01-15T05:07:59;99669.63;;;7.54;65.85
72685;BME280;61365;52.162;4.500;2023-01-15T05:10:26;99665.38;;;7.39;64.98
72685;BME280;61365;52.162;4.500;2023-01-15T05:12:52;99651.38;;;7.50;66.14
72685;BME280;61365;52.162;4.500;2023-01-15T05:15:19;99667.88;;;7.59;69.26
72685;BME280;61365;52.162;4.500;2023-01-15T05:17:45;99651.44;;;7.46;66.28
72685;BME280;61365;52.162;4.500;2023-01-15T05:20:11;99658.38;;;7.47;67.36
72685;BME280;61365;52.162;4.500;2023-01-15T05:22:39;99665.31;;;7.51;70.54
72685;BME280;61365;52.162;4.500;2023-01-15T05:25:06;99664.44;;;7.50;70.15
72685;BME280;61365;52.162;4.500;2023-01-15T05:27:33;99658.34;;;7.50;65.62
72685;BME280;61365;52.162;4.500;2023-01-15T05:29:59;99655.88;;;7.30;64.53
72685;BME280;61365;52.162;4.500;2023-01-15T05:32:26;99665.44;;;7.31;65.65
72685;BME280;61365;52.162;4.500;2023-01-15T05:34:52;99660.22;;;7.34;67.92
72685;BME280;61365;52.162;4.500;2023-01-15T05:37:18;99656.69;;;7.40;70.08
72685;BME280;61365;52.162;4.500;2023-01-15T05:39:45;99670.72;;;7.20;68.27
72685;BME280;61365;52.162;4.500;2023-01-15T05:42:11;99658.53;;;7.24;67.87
72685;BME280;61365;52.162;4.500;2023-01-15T05:44:37;99642.88;;;7.24;70.39
72685;BME280;61365;52.162;4.500;2023-01-15T05:47:04;99650.75;;;7.19;64.35
72685;BME280;61365;52.162;4.500;2023-01-15T05:49:31;99651.75;;;6.93;66.89
72685;BME280;61365;52.162;4.500;2023-01-15T05:51:58;99639.53;;;7.01;65.48
72685;BME280;61365;52.162;4.500;2023-01-15T05:54:28;99636.97;;;6.95;64.69
72685;BME280;61365;52.162;4.500;2023-01-15T05:56:57;99642.97;;;7.08;64.53
72685;BME280;61365;52.162;4.500;2023-01-15T05:59:25;99660.34;;;7.12;66.47
72685;BME280;61365;52.162;4.500;2023-01-15T06:01:54;99658.66;;;7.02;65.13
72685;BME280;61365;52.162;4.500;2023-01-15T06:04:21;99649.09;;;7.04;66.05
72685;BME280;61365;52.162;4.500;2023-01-15T06:06:51;99656.78;;;7.24;64.51
72685;BME280;61365;52.162;4.500;2023-01-15T06:09:18;99659.53;;;7.01;64.56
72685;BME280;61365;52.162;4.500;2023-01-15T06:11:48;99650.00;;;6.98;66.52
72685;BME280;61365;52.162;4.500;2023-01-15T06:14:17;99658.66;;;7.02;66.00
72685;BME280;61365;52.162;4.500;2023-01-15T06:16:44;99656.78;;;7.26;66.84
72685;BME280;61365;52.162;4.500;2023-01-15T06:19:12;99677.69;;;7.19;68.82
72685;BME280;61365;52.162;4.500;2023-01-15T06:21:39;99678.53;;;7.25;67.67
72685;BME280;61365;52.162;4.500;2023-01-15T06:24:06;99674.97;;;7.41;62.98
72685;BME280;61365;52.162;4.500;2023-01-15T06:26:33;99675.09;;;7.18;66.04
72685;BME280;61365;52.162;4.500;2023-01-15T06:29:00;99672.44;;;7.27;65.85
72685;BME280;61365;52.162;4.500;2023-01-15T06:31:26;99656.88;;;7.13;67.53
72685;BME280;61365;52.162;4.500;2023-01-15T06:33:53;99656.78;;;7.24;68.19
72685;BME280;61365;52.162;4.500;2023-01-15T06:36:22;99670.72;;;7.23;66.76
72685;BME280;61365;52.162;4.500;2023-01-15T06:38:50;99671.66;;;7.08;65.15
72685;BME280;61365;52.162;4.500;2023-01-15T06:41:20;99672.63;;;6.87;67.26
72685;BME280;61365;52.162;4.500;2023-01-15T06:44:10;99668.16;;;7.11;67.64
72685;BME280;61365;52.162;4.500;2023-01-15T06:47:11;99655.19;;;7.01;67.14
72685;BME280;61365;52.162;4.500;2023-01-15T06:49:50;99667.34;;;7.07;68.10
72685;BME280;61365;52.162;4.500;2023-01-15T06:52:19;99655.88;;;7.31;68.84
72685;BME280;61365;52.162;4.500;2023-01-15T06:54:47;99655.13;;;7.12;64.13
72685;BME280;61365;52.162;4.500;2023-01-15T06:57:13;99641.22;;;7.13;66.15
72685;BME280;61365;52.162;4.500;2023-01-15T06:59:39;99647.19;;;7.31;66.78
72685;BME280;61365;52.162;4.500;2023-01-15T07:02:06;99654.97;;;7.32;65.06
72685;BME280;61365;52.162;4.500;2023-01-15T07:04:32;99656.84;;;7.12;67.95
72685;BME280;61365;52.162;4.500;2023-01-15T07:06:58;99659.53;;;7.01;66.17
72685;BME280;61365;52.162;4.500;2023-01-15T07:09:25;99647.38;;;7.01;64.29
72685;BME280;61365;52.162;4.500;2023-01-15T07:11:51;99658.63;;;7.11;65.27
72685;BME280;61365;52.162;4.500;2023-01-15T07:14:20;99648.16;;;7.10;64.44
72685;BME280;61365;52.162;4.500;2023-01-15T07:16:49;99651.69;;;7.07;64.13
72685;BME280;61365;52.162;4.500;2023-01-15T07:19:16;99634.06;;;7.40;64.03
72685;BME280;61365;52.162;4.500;2023-01-15T07:21:44;99641.97;;;7.29;66.98
72685;BME280;61365;52.162;4.500;2023-01-15T07:24:11;99643.63;;;7.43;64.94
72685;BME280;61365;52.162;4.500;2023-01-15T07:26:38;99625.50;;;7.24;67.75
72685;BME280;61365;52.162;4.500;2023-01-15T07:29:12;99629.63;;;7.51;68.37
72685;BME280;61365;52.162;4.500;2023-01-15T07:31:39;99626.41;;;7.18;66.75
72685;BME280;61365;52.162;4.500;2023-01-15T07:34:06;99621.88;;;7.42;69.58
72685;BME280;61365;52.162;4.500;2023-01-15T07:36:33;99645.31;;;7.45;69.60
72685;BME280;61365;52.162;4.500;2023-01-15T07:38:59;99628.69;;;7.59;71.20
72685;BME280;61365;52.162;4.500;2023-01-15T07:41:25;99630.69;;;7.24;67.73
72685;BME280;61365;52.162;4.500;2023-01-15T07:44:10;99638.53;;;7.19;70.09
72685;BME280;61365;52.162;4.500;2023-01-15T07:46:56;99637.59;;;7.33;71.50
72685;BME280;61365;52.162;4.500;2023-01-15T07:49:44;99634.28;;;7.09;70.07
72685;BME280;61365;52.162;4.500;2023-01-15T07:52:12;99627.81;;;7.60;70.20
72685;BME280;61365;52.162;4.500;2023-01-15T07:54:47;99640.03;;;7.55;69.21
72685;BME280;61365;52.162;4.500;2023-01-15T07:57:20;99634.69;;;7.72;71.43
72685;BME280;61365;52.162;4.500;2023-01-15T07:59:48;99628.75;;;7.53;68.84
72685;BME280;61365;52.162;4.500;2023-01-15T08:02:15;99640.84;;;7.64;66.76
72685;BME280;61365;52.162;4.500;2023-01-15T08:04:42;99647.06;;;7.46;67.26
72685;BME280;61365;52.162;4.500;2023-01-15T08:07:09;99646.25;;;7.40;70.77
72685;BME280;61365;52.162;4.500;2023-01-15T08:09:35;99648.78;;;7.49;69.55
72685;BME280;61365;52.162;4.500;2023-01-15T08:12:02;99628.53;;;7.79;68.08
72685;BME280;61365;52.162;4.500;2023-01-15T08:14:48;99634.78;;;7.59;66.32
72685;BME280;61365;52.162;4.500;2023-01-15T08:17:37;99637.38;;;7.61;65.17
72685;BME280;61365;52.162;4.500;2023-01-15T08:20:08;99631.25;;;7.63;67.59
72685;BME280;61365;52.162;4.500;2023-01-15T08:22:37;99639.03;;;7.71;70.07
72685;BME280;61365;52.162;4.500;2023-01-15T08:25:06;99672.16;;;7.66;70.17
72685;BME280;61365;52.162;4.500;2023-01-15T08:27:36;99632.97;;;7.68;70.58
72685;BME280;61365;52.162;4.500;2023-01-15T08:30:04;99637.25;;;7.76;68.88
72685;BME280;61365;52.162;4.500;2023-01-15T08:32:33;99654.03;;;7.49;69.08
72685;BME280;61365;52.162;4.500;2023-01-15T08:34:59;99649.56;;;7.60;69.32
72685;BME280;61365;52.162;4.500;2023-01-15T08:37:25;99636.50;;;7.65;71.09
72685;BME280;61365;52.162;4.500;2023-01-15T08:39:52;99645.22;;;7.59;69.09
72685;BME280;61365;52.162;4.500;2023-01-15T08:42:19;99640.00;;;7.61;68.49
72685;BME280;61365;52.162;4.500;2023-01-15T08:44:46;99644.28;;;7.70;70.57
72685;BME280;61365;52.162;4.500;2023-01-15T08:47:14;99643.56;;;7.49;69.33
72685;BME280;61365;52.162;4.500;2023-01-15T08:49:41;99640.97;;;7.49;70.21
72685;BME280;61365;52.162;4.500;2023-01-15T08:52:07;99646.91;;;7.68;69.79
72685;BME280;61365;52.162;4.500;2023-01-15T08:54:34;99638.13;;;7.77;72.11
72685;BME280;61365;52.162;4.500;2023-01-15T08:57:01;99630.19;;;7.86;71.35
72685;BME280;61365;52.162;4.500;2023-01-15T08:59:27;99641.50;;;7.90;71.25
72685;BME280;61365;52.162;4.500;2023-01-15T09:01:54;99648.59;;;7.74;69.76
72685;BME280;61365;52.162;4.500;2023-01-15T09:04:20;99649.19;;;8.02;68.05
72685;BME280;61365;52.162;4.500;2023-01-15T09:06:47;99649.25;;;7.96;68.02
72685;BME280;61365;52.162;4.500;2023-01-15T09:09:14;99649.16;;;8.05;71.01
72685;BME280;61365;52.162;4.500;2023-01-15T09:11:41;99651.84;;;7.99;70.04
72685;BME280;61365;52.162;4.500;2023-01-15T09:14:10;99630.28;;;7.75;70.71
72685;BME280;61365;52.162;4.500;2023-01-15T09:16:38;99655.75;;;7.50;69.63
72685;BME280;61365;52.162;4.500;2023-01-15T09:19:05;99639.88;;;7.73;72.88
72685;BME280;61365;52.162;4.500;2023-01-15T09:21:33;99639.75;;;7.87;71.75
72685;BME280;61365;52.162;4.500;2023-01-15T09:24:05;99643.22;;;7.94;70.21
72685;BME280;61365;52.162;4.500;2023-01-15T09:26:36;99648.38;;;7.99;71.02
72685;BME280;61365;52.162;4.500;2023-01-15T09:29:06;99644.09;;;7.91;69.63
72685;BME280;61365;52.162;4.500;2023-01-15T09:31:34;99634.69;;;7.72;69.62
72685;BME280;61365;52.162;4.500;2023-01-15T09:34:00;99638.63;;;8.13;72.32
72685;BME280;61365;52.162;4.500;2023-01-15T09:36:30;99640.50;;;8.02;67.97
72685;BME280;61365;52.162;4.500;2023-01-15T09:38:59;99636.41;;;7.76;68.88
72685;BME280;61365;52.162;4.500;2023-01-15T09:41:54;99639.78;;;7.86;71.10
72685;BME280;61365;52.162;4.500;2023-01-15T09:48:03;99641.53;;;7.87;70.69
72685;BME280;61365;52.162;4.500;2023-01-15T09:56:29;99644.91;;;7.95;68.47
72685;BME280;61365;52.162;4.500;2023-01-15T09:59:05;99652.63;;;8.09;69.40
72685;BME280;61365;52.162;4.500;2023-01-15T10:01:46;99647.28;;;8.21;69.01
72685;BME280;61365;52.162;4.500;2023-01-15T10:04:27;99651.66;;;8.19;68.23
72685;BME280;61365;52.162;4.500;2023-01-15T10:10:11;99655.72;;;8.48;69.00
72685;BME280;61365;52.162;4.500;2023-01-15T10:12:44;99641.53;;;8.68;67.62
72685;BME280;61365;52.162;4.500;2023-01-15T10:18:06;99663.25;;;8.75;67.39
72685;BME280;61365;52.162;4.500;2023-01-15T10:21:09;99652.81;;;8.73;63.23
72685;BME280;61365;52.162;4.500;2023-01-15T10:24:05;99660.88;;;8.56;66.48
72685;BME280;61365;52.162;4.500;2023-01-15T10:26:45;99657.44;;;8.51;67.52
72685;BME280;61365;52.162;4.500;2023-01-15T10:32:32;99676.75;;;8.34;67.49
72685;BME280;61365;52.162;4.500;2023-01-15T10:38:32;99681.03;;;8.45;69.83
72685;BME280;61365;52.162;4.500;2023-01-15T10:47:14;99692.00;;;8.78;65.00
72685;BME280;61365;52.162;4.500;2023-01-15T10:49:47;99685.03;;;8.78;68.41
72685;BME280;61365;52.162;4.500;2023-01-15T10:52:24;99693.88;;;8.66;68.42
72685;BME280;61365;52.162;4.500;2023-01-15T10:55:18;99694.75;;;8.64;65.87
72685;BME280;61365;52.162;4.500;2023-01-15T10:57:56;99693.00;;;8.66;67.32
72685;BME280;61365;52.162;4.500;2023-01-15T11:00:36;99695.63;;;8.67;66.79
72685;BME280;61365;52.162;4.500;2023-01-15T11:03:16;99700.16;;;8.51;67.74
72685;BME280;61365;52.162;4.500;2023-01-15T11:05:46;99690.38;;;8.66;67.03
72685;BME280;61365;52.162;4.500;2023-01-15T11:08:25;99678.22;;;8.62;66.86
72685;BME280;61365;52.162;4.500;2023-01-15T11:10:56;99695.38;;;8.86;63.77
72685;BME280;61365;52.162;4.500;2023-01-15T11:13:25;99699.19;;;8.57;67.62
72685;BME280;61365;52.162;4.500;2023-01-15T11:16:14;99694.03;;;8.48;69.22
72685;BME280;61365;52.162;4.500;2023-01-15T11:19:30;99717.44;;;8.63;65.47
72685;BME280;61365;52.162;4.500;2023-01-15T11:22:14;99700.75;;;8.75;66.87
72685;BME280;61365;52.162;4.500;2023-01-15T11:24:59;99706.09;;;8.63;65.86
72685;BME280;61365;52.162;4.500;2023-01-15T11:27:29;99684.06;;;8.84;66.91
72685;BME280;61365;52.162;4.500;2023-01-15T11:30:00;99683.31;;;8.74;66.06
72685;BME280;61365;52.162;4.500;2023-01-15T11:32:34;99683.28;;;8.76;63.66
72685;BME280;61365;52.162;4.500;2023-01-15T11:35:09;99681.44;;;8.84;66.41
72685;BME280;61365;52.162;4.500;2023-01-15T11:37:41;99684.09;;;8.82;67.43
72685;BME280;61365;52.162;4.500;2023-01-15T11:40:21;99670.00;;;8.93;66.77
72685;BME280;61365;52.162;4.500;2023-01-15T11:42:50;99687.47;;;8.91;64.61
72685;BME280;61365;52.162;4.500;2023-01-15T11:45:46;99689.28;;;8.87;65.87
72685;BME280;61365;52.162;4.500;2023-01-15T11:48:46;99692.06;;;8.71;65.44
72685;BME280;61365;52.162;4.500;2023-01-15T11:51:41;99686.56;;;8.95;66.67
72685;BME280;61365;52.162;4.500;2023-01-15T11:54:14;99690.16;;;8.84;65.92
72685;BME280;61365;52.162;4.500;2023-01-15T11:56:43;99688.69;;;8.62;67.93
72685;BME280;61365;52.162;4.500;2023-01-15T11:59:13;99699.91;;;8.73;67.50
72685;BME280;61365;52.162;4.500;2023-01-15T12:01:52;99687.66;;;8.74;68.00
72685;BME280;61365;52.162;4.500;2023-01-15T12:04:53;99705.56;;;9.08;68.49
72685;BME280;61365;52.162;4.500;2023-01-15T12:07:24;99704.69;;;9.09;64.15
72685;BME280;61365;52.162;4.500;2023-01-15T12:15:28;99686.44;;;9.04;66.93
72685;BME280;61365;52.162;4.500;2023-01-15T12:26:27;99699.13;;;8.66;68.24
72685;BME280;61365;52.162;4.500;2023-01-15T12:28:58;99693.03;;;8.64;69.19
72685;BME280;61365;52.162;4.500;2023-01-15T12:31:40;99698.06;;;8.81;67.95
72685;BME280;61365;52.162;4.500;2023-01-15T12:34:21;99697.34;;;8.68;68.91
72685;BME280;61365;52.162;4.500;2023-01-15T12:37:01;99685.78;;;8.88;67.75
72685;BME280;61365;52.162;4.500;2023-01-15T12:39:33;99689.28;;;8.87;67.71
72685;BME280;61365;52.162;4.500;2023-01-15T12:42:09;99693.03;;;8.63;67.18
72685;BME280;61365;52.162;4.500;2023-01-15T12:45:03;99685.53;;;9.07;66.10
72685;BME280;61365;52.162;4.500;2023-01-15T12:53:25;99679.56;;;9.56;65.29
72685;BME280;61365;52.162;4.500;2023-01-15T12:59:22;99691.34;;;9.27;66.07
72685;BME280;61365;52.162;4.500;2023-01-15T13:02:16;99695.84;;;9.19;69.27
72685;BME280;61365;52.162;4.500;2023-01-15T13:05:35;99702.69;;;9.28;68.40
72685;BME280;61365;52.162;4.500;2023-01-15T13:10:52;99701.53;;;9.48;64.93
72685;BME280;61365;52.162;4.500;2023-01-15T13:13:27;99698.19;;;9.36;66.97
72685;BME280;61365;52.162;4.500;2023-01-15T13:21:47;99698.28;;;9.31;65.57
72685;BME280;61365;52.162;4.500;2023-01-15T13:33:36;99691.19;;;9.40;66.46
72685;BME280;61365;52.162;4.500;2023-01-15T13:36:15;99699.03;;;9.38;65.20
72685;BME280;61365;52.162;4.500;2023-01-15T13:38:52;99689.97;;;9.00;65.98
72685;BME280;61365;52.162;4.500;2023-01-15T13:41:24;99697.03;;;8.93;67.16
72685;BME280;61365;52.162;4.500;2023-01-15T13:44:19;99715.41;;;8.89;69.04
72685;BME280;61365;52.162;4.500;2023-01-15T13:49:39;99725.47;;;8.43;71.97
72685;BME280;61365;52.162;4.500;2023-01-15T13:52:32;99710.50;;;8.59;71.76
72685;BME280;61365;52.162;4.500;2023-01-15T13:55:09;99713.22;;;8.47;72.40
72685;BME280;61365;52.162;4.500;2023-01-15T13:57:42;99720.03;;;8.66;71.83
72685;BME280;61365;52.162;4.500;2023-01-15T14:03:31;99726.22;;;8.59;70.79
72685;BME280;61365;52.162;4.500;2023-01-15T14:06:07;99732.94;;;8.82;70.10
72685;BME280;61365;52.162;4.500;2023-01-15T14:08:43;99739.97;;;8.78;69.50
72685;BME280;61365;52.162;4.500;2023-01-15T14:14:45;99743.69;;;8.54;71.14
72685;BME280;61365;52.162;4.500;2023-01-15T14:20:20;99756.78;;;8.52;70.42
72685;BME280;61365;52.162;4.500;2023-01-15T14:35:00;99760.22;;;8.56;72.51
72685;BME280;61365;52.162;4.500;2023-01-15T14:37:58;99761.03;;;8.63;70.83
72685;BME280;61365;52.162;4.500;2023-01-15T14:40:32;99779.53;;;8.39;70.58
72685;BME280;61365;52.162;4.500;2023-01-15T14:43:06;99761.38;;;8.21;69.85
72685;BME280;61365;52.162;4.500;2023-01-15T14:45:39;99777.94;;;8.21;70.82
72685;BME280;61365;52.162;4.500;2023-01-15T14:51:17;99779.63;;;8.29;73.09
72685;BME280;61365;52.162;4.500;2023-01-15T14:53:54;99768.31;;;8.26;71.26
72685;BME280;61365;52.162;4.500;2023-01-15T14:56:30;99776.09;;;8.33;71.63
72685;BME280;61365;52.162;4.500;2023-01-15T15:02:19;99790.91;;;8.35;73.66
72685;BME280;61365;52.162;4.500;2023-01-15T15:04:52;99811.03;;;8.21;77.55
72685;BME280;61365;52.162;4.500;2023-01-15T15:07:22;99796.56;;;7.76;77.83
72685;BME280;61365;52.162;4.500;2023-01-15T15:10:08;99811.38;;;7.73;79.25
72685;BME280;61365;52.162;4.500;2023-01-15T15:15:34;99823.59;;;7.69;81.00
72685;BME280;61365;52.162;4.500;2023-01-15T15:18:25;99815.94;;;7.29;81.35
72685;BME280;61365;52.162;4.500;2023-01-15T15:21:40;99819.38;;;7.42;82.01
72685;BME280;61365;52.162;4.500;2023-01-15T15:24:15;99814.91;;;7.67;80.17
72685;BME280;61365;52.162;4.500;2023-01-15T15:26:48;99821.16;;;7.32;81.62
72685;BME280;61365;52.162;4.500;2023-01-15T15:29:17;99817.69;;;7.27;83.73
72685;BME280;61365;52.162;4.500;2023-01-15T15:31:51;99810.78;;;7.18;84.45
72685;BME280;61365;52.162;4.500;2023-01-15T15:34:27;99802.09;;;7.11;82.04
72685;BME280;61365;52.162;4.500;2023-01-15T15:37:01;99813.38;;;7.18;83.10
72685;BME280;61365;52.162;4.500;2023-01-15T15:39:40;99816.88;;;7.11;83.70
72685;BME280;61365;52.162;4.500;2023-01-15T15:42:20;99823.00;;;7.00;83.33
72685;BME280;61365;52.162;4.500;2023-01-15T15:51:26;99840.38;;;6.94;84.51
72685;BME280;61365;52.162;4.500;2023-01-15T15:54:19;99837.81;;;6.83;83.79